This is the latest recevied weather packets stored in our database for station/object SQ7KHZ-10. If no packets are shown the sender has not sent any weather packets the latest 10 day(s).
| Time | Temp. | Humidity | Pressure | Rain* | Wind** | Luminosity | Snow |
|---|---|---|---|---|---|---|---|
| 1777552589 | 11.67° C | 33% | 1028.6 hPa | 0 mm | - | - | - |
| 1777551379 | 12.22° C | 36% | 1028.8 hPa | 0 mm | - | - | - |
| 1777550170 | 12.22° C | 30% | 1028.9 hPa | 0 mm | - | - | - |
| 1777548968 | 12.78° C | 31% | 1029.2 hPa | 0 mm | - | - | - |
| 1777547767 | 11.67° C | 36% | 1029.1 hPa | 0 mm | - | - | - |
| 1777546556 | 11.67° C | 38% | 1029.5 hPa | 0 mm | - | - | - |
| 1777545356 | 11.11° C | 34% | 1029.6 hPa | 0 mm | - | - | - |
| 1777544155 | 11.11° C | 36% | 1029.7 hPa | 0 mm | - | - | - |
| 1777542944 | 11.11° C | 36% | 1029.9 hPa | 0 mm | - | - | - |
| 1777541734 | 10.56° C | 42% | 1030 hPa | 0 mm | - | - | - |
| 1777540495 | 10° C | 42% | 1030 hPa | 0 mm | - | - | - |
| 1777539294 | 9.44° C | 42% | 1030.2 hPa | 0 mm | - | - | - |
| 1777538084 | 9.44° C | 43% | 1030.3 hPa | 0 mm | - | - | - |
| 1777536882 | 8.89° C | 45% | 1030.3 hPa | 0 mm | - | - | - |
| 1777535673 | 8.89° C | 45% | 1030.5 hPa | 0 mm | - | - | - |
| 1777534465 | 8.33° C | 46% | 1030.6 hPa | 0 mm | - | - | - |
| 1777533259 | 8.33° C | 48% | 1030.7 hPa | 0 mm | - | - | - |
| 1777532055 | 6.67° C | 54% | 1030.8 hPa | 0 mm | - | - | - |
| 1777530851 | 5.56° C | 62% | 1030.7 hPa | 0 mm | - | - | - |
| 1777529647 | 4.44° C | 63% | 1030.5 hPa | 0 mm | - | - | - |
| 1777528441 | 3.33° C | 64% | 1030.6 hPa | 0 mm | - | - | - |
| 1777527238 | 1.11° C | 76% | 1030.5 hPa | 0 mm | - | - | - |
| 1777526038 | -0.56° C | 88% | 1030.6 hPa | 0 mm | - | - | - |
| 1777524838 | -2.22° C | 89% | 1030.4 hPa | 0 mm | - | - | - |
| 1777523637 | -2.78° C | 88% | 1030.4 hPa | 0 mm | - | - | - |
* Rain latest hour (hover to see other rain measurements)
** Current wind speed in m/s (hover to see current wind gust speed)